sensor_id;sensor_type;location;lat;lon;timestamp;P1;durP1;ratioP1;P2;durP2;ratioP2
65033;SDS011;51601;51.356;12.458;2023-03-01T00:03:11;23.83;;;10.88;;
65033;SDS011;51601;51.356;12.458;2023-03-01T00:07:29;24.40;;;11.43;;
65033;SDS011;51601;51.356;12.458;2023-03-01T00:11:49;22.27;;;10.10;;
65033;SDS011;51601;51.356;12.458;2023-03-01T00:16:09;21.70;;;10.52;;
65033;SDS011;51601;51.356;12.458;2023-03-01T00:20:29;22.48;;;9.57;;
65033;SDS011;51601;51.356;12.458;2023-03-01T00:24:47;21.70;;;10.03;;
65033;SDS011;51601;51.356;12.458;2023-03-01T00:29:07;19.08;;;9.38;;
65033;SDS011;51601;51.356;12.458;2023-03-01T00:33:27;19.48;;;9.35;;
65033;SDS011;51601;51.356;12.458;2023-03-01T00:37:45;21.13;;;10.30;;
65033;SDS011;51601;51.356;12.458;2023-03-01T00:42:03;18.83;;;9.57;;
65033;SDS011;51601;51.356;12.458;2023-03-01T00:46:23;21.58;;;10.25;;
65033;SDS011;51601;51.356;12.458;2023-03-01T00:50:42;23.08;;;9.88;;
65033;SDS011;51601;51.356;12.458;2023-03-01T00:55:00;20.03;;;9.60;;
65033;SDS011;51601;51.356;12.458;2023-03-01T00:59:18;24.27;;;10.27;;
65033;SDS011;51601;51.356;12.458;2023-03-01T01:03:38;21.45;;;10.02;;
65033;SDS011;51601;51.356;12.458;2023-03-01T01:07:57;23.60;;;10.43;;
65033;SDS011;51601;51.356;12.458;2023-03-01T01:12:15;22.15;;;10.15;;
65033;SDS011;51601;51.356;12.458;2023-03-01T01:16:33;23.73;;;10.57;;
65033;SDS011;51601;51.356;12.458;2023-03-01T01:20:53;25.87;;;10.37;;
65033;SDS011;51601;51.356;12.458;2023-03-01T01:25:13;24.33;;;9.93;;
65033;SDS011;51601;51.356;12.458;2023-03-01T01:29:31;23.88;;;10.05;;
65033;SDS011;51601;51.356;12.458;2023-03-01T01:33:49;22.75;;;9.63;;
65033;SDS011;51601;51.356;12.458;2023-03-01T01:38:08;21.53;;;9.73;;
65033;SDS011;51601;51.356;12.458;2023-03-01T01:42:28;22.02;;;10.20;;
65033;SDS011;51601;51.356;12.458;2023-03-01T01:46:47;23.08;;;9.80;;
65033;SDS011;51601;51.356;12.458;2023-03-01T01:51:09;22.83;;;9.73;;
65033;SDS011;51601;51.356;12.458;2023-03-01T01:55:33;19.50;;;9.38;;
65033;SDS011;51601;51.356;12.458;2023-03-01T01:59:54;21.88;;;9.23;;
65033;SDS011;51601;51.356;12.458;2023-03-01T02:04:17;22.63;;;9.53;;
65033;SDS011;51601;51.356;12.458;2023-03-01T02:08:35;21.58;;;9.55;;
65033;SDS011;51601;51.356;12.458;2023-03-01T02:13:00;24.77;;;9.88;;
65033;SDS011;51601;51.356;12.458;2023-03-01T02:17:20;22.20;;;9.85;;
65033;SDS011;51601;51.356;12.458;2023-03-01T02:21:41;23.20;;;10.17;;
65033;SDS011;51601;51.356;12.458;2023-03-01T02:26:07;23.90;;;10.02;;
65033;SDS011;51601;51.356;12.458;2023-03-01T02:30:31;23.73;;;9.55;;
65033;SDS011;51601;51.356;12.458;2023-03-01T02:34:51;24.90;;;10.07;;
65033;SDS011;51601;51.356;12.458;2023-03-01T02:39:12;22.80;;;9.50;;
65033;SDS011;51601;51.356;12.458;2023-03-01T02:43:33;24.15;;;10.30;;
65033;SDS011;51601;51.356;12.458;2023-03-01T02:47:56;24.73;;;9.70;;
65033;SDS011;51601;51.356;12.458;2023-03-01T02:52:24;20.25;;;9.57;;
65033;SDS011;51601;51.356;12.458;2023-03-01T02:56:58;22.90;;;9.63;;
65033;SDS011;51601;51.356;12.458;2023-03-01T03:01:26;20.58;;;9.02;;
65033;SDS011;51601;51.356;12.458;2023-03-01T03:06:01;24.80;;;9.57;;
65033;SDS011;51601;51.356;12.458;2023-03-01T03:10:26;20.88;;;9.00;;
65033;SDS011;51601;51.356;12.458;2023-03-01T03:14:51;23.40;;;9.65;;
65033;SDS011;51601;51.356;12.458;2023-03-01T03:19:15;21.50;;;10.20;;
65033;SDS011;51601;51.356;12.458;2023-03-01T03:23:42;25.98;;;10.20;;
65033;SDS011;51601;51.356;12.458;2023-03-01T03:28:06;23.38;;;10.18;;
65033;SDS011;51601;51.356;12.458;2023-03-01T03:32:32;24.03;;;10.97;;
65033;SDS011;51601;51.356;12.458;2023-03-01T03:36:57;24.23;;;10.15;;
65033;SDS011;51601;51.356;12.458;2023-03-01T03:41:23;21.33;;;9.73;;
65033;SDS011;51601;51.356;12.458;2023-03-01T03:45:47;23.27;;;10.23;;
65033;SDS011;51601;51.356;12.458;2023-03-01T03:50:13;26.33;;;10.47;;
65033;SDS011;51601;51.356;12.458;2023-03-01T03:54:39;24.63;;;10.80;;
65033;SDS011;51601;51.356;12.458;2023-03-01T03:59:04;25.58;;;11.43;;
65033;SDS011;51601;51.356;12.458;2023-03-01T04:03:29;23.77;;;10.10;;
65033;SDS011;51601;51.356;12.458;2023-03-01T04:07:53;25.80;;;11.32;;
65033;SDS011;51601;51.356;12.458;2023-03-01T04:12:24;25.10;;;10.95;;
65033;SDS011;51601;51.356;12.458;2023-03-01T04:16:49;24.93;;;11.00;;
65033;SDS011;51601;51.356;12.458;2023-03-01T04:21:13;23.73;;;10.48;;
65033;SDS011;51601;51.356;12.458;2023-03-01T04:25:37;27.23;;;11.80;;
65033;SDS011;51601;51.356;12.458;2023-03-01T04:30:11;29.98;;;12.10;;
65033;SDS011;51601;51.356;12.458;2023-03-01T04:34:37;26.23;;;11.90;;
65033;SDS011;51601;51.356;12.458;2023-03-01T04:39:03;29.90;;;12.10;;
65033;SDS011;51601;51.356;12.458;2023-03-01T04:43:34;26.58;;;11.65;;
65033;SDS011;51601;51.356;12.458;2023-03-01T04:48:00;27.07;;;12.23;;
65033;SDS011;51601;51.356;12.458;2023-03-01T04:52:25;30.88;;;12.48;;
65033;SDS011;51601;51.356;12.458;2023-03-01T04:56:49;27.27;;;12.48;;
65033;SDS011;51601;51.356;12.458;2023-03-01T05:01:14;30.10;;;12.27;;
65033;SDS011;51601;51.356;12.458;2023-03-01T05:05:41;26.70;;;11.90;;
65033;SDS011;51601;51.356;12.458;2023-03-01T05:10:08;26.95;;;12.32;;
65033;SDS011;51601;51.356;12.458;2023-03-01T05:14:34;28.55;;;12.90;;
65033;SDS011;51601;51.356;12.458;2023-03-01T05:19:00;29.43;;;13.13;;
65033;SDS011;51601;51.356;12.458;2023-03-01T05:23:34;26.75;;;11.98;;
65033;SDS011;51601;51.356;12.458;2023-03-01T05:28:00;26.30;;;11.73;;
65033;SDS011;51601;51.356;12.458;2023-03-01T05:32:26;25.00;;;11.67;;
65033;SDS011;51601;51.356;12.458;2023-03-01T05:36:54;27.65;;;12.60;;
65033;SDS011;51601;51.356;12.458;2023-03-01T05:41:20;26.95;;;11.35;;
65033;SDS011;51601;51.356;12.458;2023-03-01T05:45:46;24.43;;;11.10;;
65033;SDS011;51601;51.356;12.458;2023-03-01T05:50:11;28.38;;;11.85;;
65033;SDS011;51601;51.356;12.458;2023-03-01T05:54:36;26.23;;;11.52;;
65033;SDS011;51601;51.356;12.458;2023-03-01T05:59:00;24.65;;;11.05;;
65033;SDS011;51601;51.356;12.458;2023-03-01T06:03:27;23.93;;;10.53;;
65033;SDS011;51601;51.356;12.458;2023-03-01T06:07:51;28.45;;;12.05;;
65033;SDS011;51601;51.356;12.458;2023-03-01T06:12:15;23.65;;;11.10;;
65033;SDS011;51601;51.356;12.458;2023-03-01T06:16:40;23.97;;;10.63;;
65033;SDS011;51601;51.356;12.458;2023-03-01T06:21:06;24.58;;;11.10;;
65033;SDS011;51601;51.356;12.458;2023-03-01T06:25:31;22.50;;;10.65;;
65033;SDS011;51601;51.356;12.458;2023-03-01T06:29:55;24.40;;;10.50;;
65033;SDS011;51601;51.356;12.458;2023-03-01T06:34:19;23.52;;;10.43;;
65033;SDS011;51601;51.356;12.458;2023-03-01T06:38:45;25.70;;;11.73;;
65033;SDS011;51601;51.356;12.458;2023-03-01T06:43:09;25.58;;;11.63;;
65033;SDS011;51601;51.356;12.458;2023-03-01T06:47:35;27.10;;;11.47;;
65033;SDS011;51601;51.356;12.458;2023-03-01T06:51:59;24.38;;;11.43;;
65033;SDS011;51601;51.356;12.458;2023-03-01T06:56:24;28.10;;;11.30;;
65033;SDS011;51601;51.356;12.458;2023-03-01T07:00:48;29.80;;;11.97;;
65033;SDS011;51601;51.356;12.458;2023-03-01T07:05:12;23.50;;;10.38;;
65033;SDS011;51601;51.356;12.458;2023-03-01T07:09:37;20.23;;;9.00;;
65033;SDS011;51601;51.356;12.458;2023-03-01T07:14:02;22.77;;;10.77;;
65033;SDS011;51601;51.356;12.458;2023-03-01T07:18:27;23.70;;;9.07;;
65033;SDS011;51601;51.356;12.458;2023-03-01T07:22:51;25.05;;;10.55;;
65033;SDS011;51601;51.356;12.458;2023-03-01T07:27:16;19.63;;;9.60;;
65033;SDS011;51601;51.356;12.458;2023-03-01T07:31:41;20.00;;;8.80;;
65033;SDS011;51601;51.356;12.458;2023-03-01T07:36:05;21.08;;;9.70;;
65033;SDS011;51601;51.356;12.458;2023-03-01T07:40:30;18.70;;;9.57;;
65033;SDS011;51601;51.356;12.458;2023-03-01T07:44:54;19.23;;;10.27;;
65033;SDS011;51601;51.356;12.458;2023-03-01T07:49:20;19.02;;;10.07;;
65033;SDS011;51601;51.356;12.458;2023-03-01T07:53:45;20.30;;;10.63;;
65033;SDS011;51601;51.356;12.458;2023-03-01T07:58:10;18.70;;;10.43;;
65033;SDS011;51601;51.356;12.458;2023-03-01T08:02:40;19.50;;;11.20;;
65033;SDS011;51601;51.356;12.458;2023-03-01T08:07:09;20.42;;;11.13;;
65033;SDS011;51601;51.356;12.458;2023-03-01T08:11:33;21.90;;;11.02;;
65033;SDS011;51601;51.356;12.458;2023-03-01T08:16:00;19.03;;;10.77;;
65033;SDS011;51601;51.356;12.458;2023-03-01T08:20:25;20.08;;;11.32;;
65033;SDS011;51601;51.356;12.458;2023-03-01T08:24:50;18.67;;;10.38;;
65033;SDS011;51601;51.356;12.458;2023-03-01T08:29:14;22.63;;;12.17;;
65033;SDS011;51601;51.356;12.458;2023-03-01T08:33:38;21.85;;;11.73;;
65033;SDS011;51601;51.356;12.458;2023-03-01T08:38:02;19.77;;;12.80;;
65033;SDS011;51601;51.356;12.458;2023-03-01T08:42:28;22.63;;;11.73;;
65033;SDS011;51601;51.356;12.458;2023-03-01T08:46:52;21.25;;;12.52;;
65033;SDS011;51601;51.356;12.458;2023-03-01T08:51:18;21.50;;;12.23;;
65033;SDS011;51601;51.356;12.458;2023-03-01T08:55:43;22.52;;;12.38;;
65033;SDS011;51601;51.356;12.458;2023-03-01T09:00:09;20.83;;;12.57;;
65033;SDS011;51601;51.356;12.458;2023-03-01T09:04:37;21.63;;;11.98;;
65033;SDS011;51601;51.356;12.458;2023-03-01T09:09:01;21.80;;;12.75;;
65033;SDS011;51601;51.356;12.458;2023-03-01T09:13:27;21.13;;;12.50;;
65033;SDS011;51601;51.356;12.458;2023-03-01T09:17:54;26.42;;;12.63;;
65033;SDS011;51601;51.356;12.458;2023-03-01T09:22:18;21.88;;;11.85;;
65033;SDS011;51601;51.356;12.458;2023-03-01T09:26:42;21.13;;;12.33;;
65033;SDS011;51601;51.356;12.458;2023-03-01T09:31:10;22.73;;;12.05;;
65033;SDS011;51601;51.356;12.458;2023-03-01T09:35:36;23.02;;;12.27;;
65033;SDS011;51601;51.356;12.458;2023-03-01T09:40:09;22.85;;;12.45;;
65033;SDS011;51601;51.356;12.458;2023-03-01T09:44:38;22.93;;;12.50;;
65033;SDS011;51601;51.356;12.458;2023-03-01T09:49:09;24.10;;;12.30;;
65033;SDS011;51601;51.356;12.458;2023-03-01T09:53:42;21.08;;;12.27;;
65033;SDS011;51601;51.356;12.458;2023-03-01T09:58:15;21.00;;;13.00;;
65033;SDS011;51601;51.356;12.458;2023-03-01T10:03:06;22.77;;;12.52;;
65033;SDS011;51601;51.356;12.458;2023-03-01T10:07:41;24.17;;;13.10;;
65033;SDS011;51601;51.356;12.458;2023-03-01T10:12:14;23.03;;;12.43;;
65033;SDS011;51601;51.356;12.458;2023-03-01T10:16:41;22.38;;;12.52;;
65033;SDS011;51601;51.356;12.458;2023-03-01T10:21:13;20.58;;;11.18;;
65033;SDS011;51601;51.356;12.458;2023-03-01T10:25:47;22.30;;;12.23;;
65033;SDS011;51601;51.356;12.458;2023-03-01T10:30:34;19.90;;;11.17;;
65033;SDS011;51601;51.356;12.458;2023-03-01T10:35:13;17.70;;;11.30;;
65033;SDS011;51601;51.356;12.458;2023-03-01T10:39:56;18.85;;;10.68;;
65033;SDS011;51601;51.356;12.458;2023-03-01T10:44:43;18.77;;;10.10;;
65033;SDS011;51601;51.356;12.458;2023-03-01T10:49:14;20.65;;;11.40;;
65033;SDS011;51601;51.356;12.458;2023-03-01T10:53:40;20.73;;;12.05;;
65033;SDS011;51601;51.356;12.458;2023-03-01T10:58:06;20.50;;;11.57;;
65033;SDS011;51601;51.356;12.458;2023-03-01T11:02:41;22.55;;;13.05;;
65033;SDS011;51601;51.356;12.458;2023-03-01T11:07:07;23.33;;;13.73;;
65033;SDS011;51601;51.356;12.458;2023-03-01T11:11:32;24.85;;;14.30;;
65033;SDS011;51601;51.356;12.458;2023-03-01T11:15:59;23.13;;;13.60;;
65033;SDS011;51601;51.356;12.458;2023-03-01T11:20:25;25.02;;;13.15;;
65033;SDS011;51601;51.356;12.458;2023-03-01T11:24:55;22.50;;;13.40;;
65033;SDS011;51601;51.356;12.458;2023-03-01T11:29:32;24.57;;;13.00;;
65033;SDS011;51601;51.356;12.458;2023-03-01T11:34:11;26.13;;;14.15;;
65033;SDS011;51601;51.356;12.458;2023-03-01T11:38:38;22.65;;;12.70;;
65033;SDS011;51601;51.356;12.458;2023-03-01T11:43:09;23.13;;;12.90;;
65033;SDS011;51601;51.356;12.458;2023-03-01T11:52:35;23.70;;;12.65;;
65033;SDS011;51601;51.356;12.458;2023-03-01T11:57:13;19.33;;;10.75;;
65033;SDS011;51601;51.356;12.458;2023-03-01T12:02:15;22.73;;;10.77;;
65033;SDS011;51601;51.356;12.458;2023-03-01T12:07:00;22.08;;;11.07;;
65033;SDS011;51601;51.356;12.458;2023-03-01T12:11:29;17.50;;;9.80;;
65033;SDS011;51601;51.356;12.458;2023-03-01T12:16:13;17.93;;;9.23;;
65033;SDS011;51601;51.356;12.458;2023-03-01T12:21:02;19.13;;;9.88;;
65033;SDS011;51601;51.356;12.458;2023-03-01T12:25:34;17.77;;;8.52;;
65033;SDS011;51601;51.356;12.458;2023-03-01T12:30:05;19.67;;;9.40;;
65033;SDS011;51601;51.356;12.458;2023-03-01T12:34:48;18.38;;;9.77;;
65033;SDS011;51601;51.356;12.458;2023-03-01T12:39:32;19.88;;;9.43;;
65033;SDS011;51601;51.356;12.458;2023-03-01T12:44:11;22.23;;;10.13;;
65033;SDS011;51601;51.356;12.458;2023-03-01T12:48:56;20.23;;;10.20;;
65033;SDS011;51601;51.356;12.458;2023-03-01T12:53:26;23.83;;;11.23;;
65033;SDS011;51601;51.356;12.458;2023-03-01T12:57:56;17.90;;;7.75;;
65033;SDS011;51601;51.356;12.458;2023-03-01T13:02:32;20.00;;;9.50;;
65033;SDS011;51601;51.356;12.458;2023-03-01T13:07:04;19.52;;;9.02;;
65033;SDS011;51601;51.356;12.458;2023-03-01T13:11:49;21.60;;;10.70;;
65033;SDS011;51601;51.356;12.458;2023-03-01T13:21:07;19.92;;;9.30;;
65033;SDS011;51601;51.356;12.458;2023-03-01T13:25:31;20.83;;;10.55;;
65033;SDS011;51601;51.356;12.458;2023-03-01T13:30:11;20.65;;;10.02;;
65033;SDS011;51601;51.356;12.458;2023-03-01T13:35:40;20.97;;;9.33;;
65033;SDS011;51601;51.356;12.458;2023-03-01T13:45:15;17.73;;;8.05;;
65033;SDS011;51601;51.356;12.458;2023-03-01T13:49:45;18.70;;;7.87;;
65033;SDS011;51601;51.356;12.458;2023-03-01T13:54:14;17.92;;;7.95;;
65033;SDS011;51601;51.356;12.458;2023-03-01T13:58:46;19.67;;;9.35;;
65033;SDS011;51601;51.356;12.458;2023-03-01T14:03:13;19.57;;;9.40;;
65033;SDS011;51601;51.356;12.458;2023-03-01T14:07:38;16.15;;;6.50;;
65033;SDS011;51601;51.356;12.458;2023-03-01T14:12:10;17.50;;;6.95;;
65033;SDS011;51601;51.356;12.458;2023-03-01T14:16:50;13.23;;;5.65;;
65033;SDS011;51601;51.356;12.458;2023-03-01T14:21:21;13.57;;;6.17;;
65033;SDS011;51601;51.356;12.458;2023-03-01T14:25:48;15.45;;;5.95;;
65033;SDS011;51601;51.356;12.458;2023-03-01T14:30:15;12.52;;;5.28;;
65033;SDS011;51601;51.356;12.458;2023-03-01T14:34:45;15.97;;;7.10;;
65033;SDS011;51601;51.356;12.458;2023-03-01T14:39:16;14.45;;;5.78;;
65033;SDS011;51601;51.356;12.458;2023-03-01T14:43:41;13.40;;;6.35;;
65033;SDS011;51601;51.356;12.458;2023-03-01T14:48:11;16.10;;;7.07;;
65033;SDS011;51601;51.356;12.458;2023-03-01T14:52:36;13.45;;;5.95;;
65033;SDS011;51601;51.356;12.458;2023-03-01T14:57:01;15.07;;;6.25;;
65033;SDS011;51601;51.356;12.458;2023-03-01T15:01:26;14.10;;;5.85;;
65033;SDS011;51601;51.356;12.458;2023-03-01T15:05:53;11.97;;;5.80;;
65033;SDS011;51601;51.356;12.458;2023-03-01T15:10:20;15.23;;;6.43;;
65033;SDS011;51601;51.356;12.458;2023-03-01T15:14:45;15.15;;;6.45;;
65033;SDS011;51601;51.356;12.458;2023-03-01T15:19:25;13.60;;;6.17;;
65033;SDS011;51601;51.356;12.458;2023-03-01T15:23:53;11.43;;;5.30;;
65033;SDS011;51601;51.356;12.458;2023-03-01T15:28:19;12.88;;;5.43;;
65033;SDS011;51601;51.356;12.458;2023-03-01T15:32:43;11.40;;;5.53;;
65033;SDS011;51601;51.356;12.458;2023-03-01T15:37:36;12.93;;;6.05;;
65033;SDS011;51601;51.356;12.458;2023-03-01T15:42:04;14.70;;;5.25;;
65033;SDS011;51601;51.356;12.458;2023-03-01T15:46:31;12.77;;;5.88;;
65033;SDS011;51601;51.356;12.458;2023-03-01T15:50:56;23.93;;;9.03;;
65033;SDS011;51601;51.356;12.458;2023-03-01T15:55:24;24.50;;;10.35;;
65033;SDS011;51601;51.356;12.458;2023-03-01T15:59:53;16.10;;;6.95;;
65033;SDS011;51601;51.356;12.458;2023-03-01T16:04:18;14.93;;;6.57;;
65033;SDS011;51601;51.356;12.458;2023-03-01T16:08:46;12.25;;;5.60;;
65033;SDS011;51601;51.356;12.458;2023-03-01T16:13:10;19.42;;;8.38;;
65033;SDS011;51601;51.356;12.458;2023-03-01T16:17:36;15.07;;;6.63;;
65033;SDS011;51601;51.356;12.458;2023-03-01T16:22:00;13.63;;;6.10;;
65033;SDS011;51601;51.356;12.458;2023-03-01T16:26:25;14.65;;;6.72;;
65033;SDS011;51601;51.356;12.458;2023-03-01T16:30:50;13.80;;;6.13;;
65033;SDS011;51601;51.356;12.458;2023-03-01T16:35:17;15.47;;;6.60;;
65033;SDS011;51601;51.356;12.458;2023-03-01T16:39:45;14.57;;;6.15;;
65033;SDS011;51601;51.356;12.458;2023-03-01T16:44:11;15.93;;;6.63;;
65033;SDS011;51601;51.356;12.458;2023-03-01T16:48:37;13.13;;;6.30;;
65033;SDS011;51601;51.356;12.458;2023-03-01T16:53:13;14.13;;;6.65;;
65033;SDS011;51601;51.356;12.458;2023-03-01T16:57:37;15.20;;;6.50;;
65033;SDS011;51601;51.356;12.458;2023-03-01T17:02:02;17.73;;;7.10;;
65033;SDS011;51601;51.356;12.458;2023-03-01T17:06:28;16.98;;;7.20;;
65033;SDS011;51601;51.356;12.458;2023-03-01T17:10:55;17.52;;;7.70;;
65033;SDS011;51601;51.356;12.458;2023-03-01T17:15:24;14.10;;;6.90;;
65033;SDS011;51601;51.356;12.458;2023-03-01T17:19:48;16.37;;;6.77;;
65033;SDS011;51601;51.356;12.458;2023-03-01T17:24:12;16.83;;;7.13;;
65033;SDS011;51601;51.356;12.458;2023-03-01T17:28:38;18.58;;;8.18;;
65033;SDS011;51601;51.356;12.458;2023-03-01T17:33:03;16.43;;;7.00;;
65033;SDS011;51601;51.356;12.458;2023-03-01T17:37:27;17.38;;;7.03;;
65033;SDS011;51601;51.356;12.458;2023-03-01T17:41:51;16.08;;;8.05;;
65033;SDS011;51601;51.356;12.458;2023-03-01T17:46:17;18.20;;;7.67;;
65033;SDS011;51601;51.356;12.458;2023-03-01T17:50:42;17.45;;;7.50;;
65033;SDS011;51601;51.356;12.458;2023-03-01T17:55:06;16.40;;;6.75;;
65033;SDS011;51601;51.356;12.458;2023-03-01T17:59:30;17.65;;;7.35;;
65033;SDS011;51601;51.356;12.458;2023-03-01T18:03:56;14.10;;;6.77;;
65033;SDS011;51601;51.356;12.458;2023-03-01T18:08:20;16.60;;;6.72;;
65033;SDS011;51601;51.356;12.458;2023-03-01T18:12:45;14.48;;;6.45;;
65033;SDS011;51601;51.356;12.458;2023-03-01T18:17:09;13.87;;;6.70;;
65033;SDS011;51601;51.356;12.458;2023-03-01T18:21:34;15.60;;;6.72;;
65033;SDS011;51601;51.356;12.458;2023-03-01T18:25:59;15.30;;;5.93;;
65033;SDS011;51601;51.356;12.458;2023-03-01T18:30:24;18.60;;;6.77;;
65033;SDS011;51601;51.356;12.458;2023-03-01T18:34:48;16.35;;;7.47;;
65033;SDS011;51601;51.356;12.458;2023-03-01T18:39:14;16.38;;;7.90;;
65033;SDS011;51601;51.356;12.458;2023-03-01T18:43:39;14.65;;;6.93;;
65033;SDS011;51601;51.356;12.458;2023-03-01T18:48:03;16.13;;;6.97;;
65033;SDS011;51601;51.356;12.458;2023-03-01T18:52:27;17.30;;;6.55;;
65033;SDS011;51601;51.356;12.458;2023-03-01T18:56:53;14.80;;;6.38;;
65033;SDS011;51601;51.356;12.458;2023-03-01T19:01:18;15.83;;;6.87;;
65033;SDS011;51601;51.356;12.458;2023-03-01T19:05:43;17.77;;;7.60;;
65033;SDS011;51601;51.356;12.458;2023-03-01T19:10:08;17.95;;;8.18;;
65033;SDS011;51601;51.356;12.458;2023-03-01T19:14:34;16.93;;;7.93;;
65033;SDS011;51601;51.356;12.458;2023-03-01T19:18:59;18.27;;;7.75;;
65033;SDS011;51601;51.356;12.458;2023-03-01T19:23:25;16.02;;;7.47;;
65033;SDS011;51601;51.356;12.458;2023-03-01T19:27:49;15.68;;;6.10;;
65033;SDS011;51601;51.356;12.458;2023-03-01T19:32:15;14.93;;;6.60;;
65033;SDS011;51601;51.356;12.458;2023-03-01T19:36:39;14.73;;;7.20;;
65033;SDS011;51601;51.356;12.458;2023-03-01T19:41:05;18.20;;;7.60;;
65033;SDS011;51601;51.356;12.458;2023-03-01T19:45:30;15.20;;;7.13;;
65033;SDS011;51601;51.356;12.458;2023-03-01T19:49:56;12.82;;;6.25;;
65033;SDS011;51601;51.356;12.458;2023-03-01T19:54:20;13.98;;;6.32;;
65033;SDS011;51601;51.356;12.458;2023-03-01T19:58:44;14.97;;;6.77;;
65033;SDS011;51601;51.356;12.458;2023-03-01T20:03:11;14.85;;;5.80;;
65033;SDS011;51601;51.356;12.458;2023-03-01T20:07:37;13.23;;;5.47;;
65033;SDS011;51601;51.356;12.458;2023-03-01T20:12:02;13.35;;;6.18;;
65033;SDS011;51601;51.356;12.458;2023-03-01T20:16:27;14.10;;;5.70;;
65033;SDS011;51601;51.356;12.458;2023-03-01T20:20:52;13.13;;;5.65;;
65033;SDS011;51601;51.356;12.458;2023-03-01T20:25:21;14.27;;;5.63;;
65033;SDS011;51601;51.356;12.458;2023-03-01T20:29:45;16.33;;;5.90;;
65033;SDS011;51601;51.356;12.458;2023-03-01T20:34:11;14.15;;;6.20;;
65033;SDS011;51601;51.356;12.458;2023-03-01T20:38:34;15.25;;;6.43;;
65033;SDS011;51601;51.356;12.458;2023-03-01T20:42:56;11.87;;;5.57;;
65033;SDS011;51601;51.356;12.458;2023-03-01T20:47:24;11.63;;;5.18;;
65033;SDS011;51601;51.356;12.458;2023-03-01T20:51:49;13.57;;;6.10;;
65033;SDS011;51601;51.356;12.458;2023-03-01T20:56:17;12.55;;;5.40;;
65033;SDS011;51601;51.356;12.458;2023-03-01T21:00:57;13.20;;;5.53;;
65033;SDS011;51601;51.356;12.458;2023-03-01T21:05:25;14.98;;;5.95;;
65033;SDS011;51601;51.356;12.458;2023-03-01T21:09:53;12.90;;;5.22;;
65033;SDS011;51601;51.356;12.458;2023-03-01T21:14:20;13.90;;;6.07;;
65033;SDS011;51601;51.356;12.458;2023-03-01T21:18:49;13.27;;;5.60;;
65033;SDS011;51601;51.356;12.458;2023-03-01T21:23:17;12.02;;;5.07;;
65033;SDS011;51601;51.356;12.458;2023-03-01T21:27:46;13.90;;;5.57;;
65033;SDS011;51601;51.356;12.458;2023-03-01T21:32:10;13.45;;;5.85;;
65033;SDS011;51601;51.356;12.458;2023-03-01T21:36:36;13.63;;;5.53;;
65033;SDS011;51601;51.356;12.458;2023-03-01T21:41:02;13.95;;;5.60;;
65033;SDS011;51601;51.356;12.458;2023-03-01T21:45:28;13.53;;;6.03;;
65033;SDS011;51601;51.356;12.458;2023-03-01T21:49:53;12.75;;;5.65;;
65033;SDS011;51601;51.356;12.458;2023-03-01T21:54:19;12.85;;;5.47;;
65033;SDS011;51601;51.356;12.458;2023-03-01T21:58:46;15.87;;;5.97;;
65033;SDS011;51601;51.356;12.458;2023-03-01T22:03:11;14.73;;;6.30;;
65033;SDS011;51601;51.356;12.458;2023-03-01T22:07:41;15.52;;;6.40;;
65033;SDS011;51601;51.356;12.458;2023-03-01T22:12:27;12.97;;;6.13;;
65033;SDS011;51601;51.356;12.458;2023-03-01T22:16:52;15.95;;;6.70;;
65033;SDS011;51601;51.356;12.458;2023-03-01T22:21:17;15.02;;;6.40;;
65033;SDS011;51601;51.356;12.458;2023-03-01T22:25:47;15.88;;;5.88;;
65033;SDS011;51601;51.356;12.458;2023-03-01T22:30:18;15.10;;;6.40;;
65033;SDS011;51601;51.356;12.458;2023-03-01T22:34:43;14.77;;;6.32;;
65033;SDS011;51601;51.356;12.458;2023-03-01T22:39:07;14.23;;;6.47;;
65033;SDS011;51601;51.356;12.458;2023-03-01T22:43:39;15.93;;;6.93;;
65033;SDS011;51601;51.356;12.458;2023-03-01T22:48:05;15.77;;;6.22;;
65033;SDS011;51601;51.356;12.458;2023-03-01T22:52:34;13.68;;;6.95;;
65033;SDS011;51601;51.356;12.458;2023-03-01T22:57:00;16.40;;;7.07;;
65033;SDS011;51601;51.356;12.458;2023-03-01T23:01:28;18.02;;;7.60;;
65033;SDS011;51601;51.356;12.458;2023-03-01T23:05:54;16.05;;;7.85;;
65033;SDS011;51601;51.356;12.458;2023-03-01T23:10:18;17.05;;;7.53;;
65033;SDS011;51601;51.356;12.458;2023-03-01T23:14:42;17.27;;;7.10;;
65033;SDS011;51601;51.356;12.458;2023-03-01T23:19:07;16.23;;;6.68;;
65033;SDS011;51601;51.356;12.458;2023-03-01T23:23:33;17.27;;;6.80;;
65033;SDS011;51601;51.356;12.458;2023-03-01T23:27:57;19.07;;;7.50;;
65033;SDS011;51601;51.356;12.458;2023-03-01T23:32:21;14.05;;;6.00;;
65033;SDS011;51601;51.356;12.458;2023-03-01T23:36:46;17.40;;;7.78;;
65033;SDS011;51601;51.356;12.458;2023-03-01T23:41:11;15.10;;;7.47;;
65033;SDS011;51601;51.356;12.458;2023-03-01T23:45:32;15.10;;;6.78;;
65033;SDS011;51601;51.356;12.458;2023-03-01T23:50:04;15.25;;;6.40;;
65033;SDS011;51601;51.356;12.458;2023-03-01T23:54:29;14.98;;;6.82;;
65033;SDS011;51601;51.356;12.458;2023-03-01T23:58:55;15.70;;;6.70;;
